Time;durP1;ratioP1;P1;durP2;ratioP2;P2;SDS_P1;SDS_P2;PMS_P1;PMS_P2;Temp;Humidity;BMP_temperature;BMP_pressure;BME280_temperature;BME280_humidity;BME280_pressure;Samples;Min_cycle;Max_cycle;Signal;HPM_P1;HPM_P2
2023/03/15 00:00:46;;;;;;;7.27;2.13;;;3.50;99.90;;;;;;5067475;28;20215;-74
2023/03/15 00:03:13;;;;;;;7.00;1.83;;;3.40;99.90;;;;;;5050294;28;20301;-73
2023/03/15 00:05:51;;;;;;;6.93;2.00;;;3.40;99.90;;;;;;5069457;28;20218;-73
2023/03/15 00:08:16;;;;;;;8.53;2.67;;;3.40;99.90;;;;;;5067591;28;20702;-74
2023/03/15 00:10:44;;;;;;;10.23;2.10;;;3.40;99.90;;;;;;5069544;28;20242;-73
2023/03/15 00:13:10;;;;;;;7.20;2.00;;;3.40;99.90;;;;;;5067685;28;20181;-74
2023/03/15 00:15:43;;;;;;;7.57;1.97;;;3.30;99.90;;;;;;5069919;28;20285;-74
2023/03/15 00:18:09;;;;;;;7.63;1.70;;;3.30;99.90;;;;;;5063473;28;20229;-74
2023/03/15 00:20:36;;;;;;;6.20;1.60;;;3.40;99.90;;;;;;5066006;28;20794;-74
2023/03/15 00:23:02;;;;;;;4.80;1.47;;;3.40;99.90;;;;;;5071559;28;20261;-73
2023/03/15 00:25:28;;;;;;;9.63;2.87;;;3.40;99.90;;;;;;5070709;28;20682;-74
2023/03/15 00:27:54;;;;;;;9.03;1.73;;;3.30;99.90;;;;;;5067416;28;20206;-74
2023/03/15 00:30:19;;;;;;;9.93;3.00;;;3.30;99.90;;;;;;5065435;28;20757;-74
2023/03/15 00:32:45;;;;;;;10.20;1.73;;;3.40;99.90;;;;;;5069057;28;20630;-75
2023/03/15 00:35:11;;;;;;;9.10;1.63;;;3.40;99.90;;;;;;5051444;28;20650;-74
2023/03/15 00:37:38;;;;;;;10.90;2.13;;;3.40;99.90;;;;;;5054033;28;20171;-73
2023/03/15 00:40:05;;;;;;;11.97;2.03;;;3.30;99.90;;;;;;5066178;28;20255;-74
2023/03/15 00:42:32;;;;;;;11.17;1.90;;;3.30;99.90;;;;;;5051477;28;20231;-73
2023/03/15 00:44:58;;;;;;;10.07;1.60;;;3.30;99.90;;;;;;5071398;28;20834;-74
2023/03/15 00:47:24;;;;;;;5.67;1.50;;;3.20;99.90;;;;;;5066784;28;20272;-74
2023/03/15 00:49:49;;;;;;;6.10;2.40;;;3.20;99.90;;;;;;5065447;28;20659;-74
2023/03/15 00:52:17;;;;;;;8.20;1.90;;;3.20;99.90;;;;;;5064194;28;20238;-74
2023/03/15 00:54:43;;;;;;;9.57;1.80;;;3.30;99.90;;;;;;5052011;28;20208;-74
2023/03/15 00:57:08;;;;;;;6.77;1.87;;;3.20;99.90;;;;;;5051046;28;20266;-71
2023/03/15 00:59:34;;;;;;;8.47;1.93;;;3.20;99.90;;;;;;5068228;28;20697;-74
2023/03/15 01:02:04;;;;;;;8.60;1.57;;;3.30;99.90;;;;;;5062746;28;20178;-74
2023/03/15 01:04:30;;;;;;;7.80;1.73;;;3.20;99.90;;;;;;5047988;28;20188;-74
2023/03/15 01:06:57;;;;;;;9.77;1.97;;;3.20;99.90;;;;;;5052531;28;20212;-73
2023/03/15 01:09:22;;;;;;;10.90;2.03;;;3.20;99.90;;;;;;5050271;28;20219;-74
2023/03/15 01:11:48;;;;;;;8.47;1.83;;;3.20;99.90;;;;;;5066357;28;20214;-73
2023/03/15 01:14:14;;;;;;;8.13;1.40;;;3.10;99.90;;;;;;5062341;28;20500;-75
2023/03/15 01:16:39;;;;;;;11.97;2.13;;;3.10;99.90;;;;;;5050042;28;20184;-74
2023/03/15 01:19:05;;;;;;;7.70;2.33;;;3.10;99.90;;;;;;5067190;28;20217;-73
2023/03/15 01:21:31;;;;;;;9.13;1.97;;;3.20;99.90;;;;;;5068058;28;20233;-75
2023/03/15 01:23:56;;;;;;;9.90;2.27;;;3.10;99.90;;;;;;5046298;28;20766;-74
2023/03/15 01:26:22;;;;;;;9.87;1.57;;;3.20;99.90;;;;;;5067147;28;20236;-75
2023/03/15 01:28:48;;;;;;;7.00;1.67;;;3.10;99.90;;;;;;5050061;28;20680;-74
2023/03/15 01:31:19;;;;;;;8.43;1.70;;;3.10;99.90;;;;;;5067154;28;20216;-74
2023/03/15 01:33:45;;;;;;;6.40;1.53;;;3.00;99.90;;;;;;5062812;28;20285;-75
2023/03/15 01:36:11;;;;;;;10.83;2.40;;;3.00;99.90;;;;;;5044160;28;20619;-73
2023/03/15 01:38:37;;;;;;;4.57;1.50;;;2.90;99.90;;;;;;5068413;28;20577;-75
2023/03/15 01:41:02;;;;;;;6.53;1.37;;;2.90;99.90;;;;;;5049676;28;20297;-74
2023/03/15 01:43:33;;;;;;;7.17;2.13;;;3.00;99.90;;;;;;5065913;28;20167;-75
2023/03/15 01:45:58;;;;;;;7.73;1.90;;;2.90;99.90;;;;;;5063271;28;20559;-75
2023/03/15 01:48:43;;;;;;;6.40;1.40;;;3.00;99.90;;;;;;5048937;28;20261;-75
2023/03/15 01:51:22;;;;;;;12.70;2.10;;;3.00;99.90;;;;;;5066925;28;20592;-75
2023/03/15 01:53:57;;;;;;;9.97;1.47;;;2.90;99.90;;;;;;5066387;28;20283;-75
2023/03/15 01:56:23;;;;;;;35.30;14.07;;;2.90;99.90;;;;;;5062233;28;20242;-73
2023/03/15 01:58:51;;;;;;;10.33;2.40;;;2.90;99.90;;;;;;5054109;28;20176;-73
2023/03/15 02:01:19;;;;;;;7.67;1.50;;;3.00;99.90;;;;;;5069553;28;20250;-73
2023/03/15 02:03:46;;;;;;;4.20;1.60;;;2.90;99.90;;;;;;5053861;28;20215;-74
2023/03/15 02:06:18;;;;;;;10.97;2.10;;;3.00;99.90;;;;;;5063455;28;20204;-73
2023/03/15 02:08:55;;;;;;;5.73;1.50;;;2.90;99.90;;;;;;5052657;28;20762;-74
2023/03/15 02:11:24;;;;;;;9.70;1.90;;;2.90;99.90;;;;;;5047665;28;20227;-73
2023/03/15 02:13:51;;;;;;;6.63;1.93;;;3.00;99.90;;;;;;5066132;28;20681;-74
2023/03/15 02:16:17;;;;;;;9.00;1.80;;;2.90;99.90;;;;;;5065175;28;20215;-74
2023/03/15 02:18:43;;;;;;;11.40;2.37;;;2.90;99.90;;;;;;5064335;28;20696;-73
2023/03/15 02:21:38;;;;;;;11.33;2.30;;;2.80;99.90;;;;;;5064182;28;20207;-73
2023/03/15 02:24:03;;;;;;;11.93;2.13;;;2.80;99.90;;;;;;5048144;28;20217;-74
2023/03/15 02:26:39;;;;;;;4.37;1.37;;;2.80;99.90;;;;;;5066129;28;20196;-74
2023/03/15 02:29:05;;;;;;;12.50;1.80;;;2.80;99.90;;;;;;5061933;28;20210;-72
2023/03/15 02:31:36;;;;;;;7.30;2.10;;;2.80;99.90;;;;;;5046010;28;20637;-74
2023/03/15 02:34:04;;;;;;;8.60;2.00;;;2.80;99.90;;;;;;5048079;28;20204;-72
2023/03/15 02:36:33;;;;;;;7.43;1.93;;;2.80;99.90;;;;;;5065495;28;20610;-74
2023/03/15 02:38:59;;;;;;;7.47;2.13;;;2.80;99.90;;;;;;5067569;28;20544;-74
2023/03/15 02:41:37;;;;;;;8.60;1.83;;;2.70;99.90;;;;;;5045215;28;20234;-75
2023/03/15 02:44:07;;;;;;;10.37;2.00;;;2.70;99.90;;;;;;5045898;28;20282;-74
2023/03/15 02:46:34;;;;;;;5.13;1.60;;;2.70;99.90;;;;;;5050607;28;20176;-73
2023/03/15 02:49:00;;;;;;;11.67;1.83;;;2.70;99.90;;;;;;5051125;28;20274;-74
2023/03/15 02:51:28;;;;;;;6.50;1.80;;;2.60;99.90;;;;;;5062825;28;20316;-73
2023/03/15 02:53:53;;;;;;;5.80;1.40;;;2.60;99.90;;;;;;5053046;28;20199;-73
2023/03/15 02:56:19;;;;;;;5.57;1.57;;;2.60;99.90;;;;;;5065553;28;20214;-74
2023/03/15 02:58:45;;;;;;;6.73;1.47;;;2.60;99.90;;;;;;5045643;28;20174;-73
2023/03/15 03:01:12;;;;;;;10.10;1.63;;;2.60;99.90;;;;;;5046787;28;20219;-72
2023/03/15 03:03:40;;;;;;;10.27;2.30;;;2.60;99.90;;;;;;5063130;28;20737;-73
2023/03/15 03:06:06;;;;;;;8.53;1.80;;;2.60;99.90;;;;;;5068301;28;20261;-71
2023/03/15 03:08:32;;;;;;;10.17;1.70;;;2.60;99.90;;;;;;5064747;28;20696;-75
2023/03/15 03:10:58;;;;;;;9.00;1.97;;;2.60;99.90;;;;;;5063874;28;20195;-74
2023/03/15 03:13:24;;;;;;;8.80;1.97;;;2.60;99.90;;;;;;5062573;28;20180;-74
2023/03/15 03:15:57;;;;;;;8.47;2.00;;;2.60;99.90;;;;;;5066423;28;20685;-73
2023/03/15 03:18:26;;;;;;;12.80;1.83;;;2.60;99.90;;;;;;5046402;28;20203;-72
2023/03/15 03:20:57;;;;;;;13.37;1.90;;;2.50;99.90;;;;;;5063761;28;20215;-73
2023/03/15 03:23:24;;;;;;;9.03;1.90;;;2.60;99.90;;;;;;5062596;28;20216;-74
2023/03/15 03:25:54;;;;;;;10.37;1.80;;;2.60;99.90;;;;;;5062869;28;20172;-74
2023/03/15 03:28:24;;;;;;;14.67;2.80;;;2.60;99.90;;;;;;5069077;28;20186;-74
2023/03/15 03:30:54;;;;;;;5.23;1.37;;;2.70;99.90;;;;;;5047953;28;20727;-74
2023/03/15 03:33:20;;;;;;;7.23;1.70;;;2.80;99.90;;;;;;5061595;28;20240;-74
2023/03/15 03:35:46;;;;;;;9.20;1.60;;;2.80;99.90;;;;;;5061625;28;20687;-74
2023/03/15 03:38:12;;;;;;;6.63;1.60;;;2.80;99.90;;;;;;5047309;28;20226;-74
2023/03/15 03:40:38;;;;;;;5.10;1.80;;;2.90;99.90;;;;;;5065260;28;20207;-74
2023/03/15 03:43:05;;;;;;;7.93;1.80;;;2.90;99.90;;;;;;5061777;28;20729;-74
2023/03/15 03:45:30;;;;;;;11.37;1.70;;;3.00;99.90;;;;;;5065133;28;20204;-74
2023/03/15 03:47:56;;;;;;;7.57;1.73;;;3.00;99.90;;;;;;5054336;28;20852;-73
2023/03/15 03:50:22;;;;;;;6.67;1.93;;;2.90;99.90;;;;;;5041789;28;20612;-75
2023/03/15 03:52:47;;;;;;;11.40;2.63;;;2.90;99.90;;;;;;5047627;28;20747;-74
2023/03/15 03:55:13;;;;;;;4.20;1.50;;;2.90;99.90;;;;;;5043040;28;20182;-75
2023/03/15 03:57:42;;;;;;;8.50;2.03;;;2.70;99.90;;;;;;5062002;28;20234;-73
2023/03/15 04:00:13;;;;;;;14.13;1.90;;;2.70;99.90;;;;;;5044605;28;20231;-74
2023/03/15 04:02:41;;;;;;;5.63;1.50;;;2.70;99.90;;;;;;5047996;28;20205;-74
2023/03/15 04:05:08;;;;;;;8.57;1.80;;;2.60;99.90;;;;;;5065075;28;20214;-72
2023/03/15 04:07:34;;;;;;;7.93;1.93;;;2.60;99.90;;;;;;5061663;28;20190;-74
2023/03/15 04:10:01;;;;;;;6.70;1.67;;;2.60;99.90;;;;;;5058421;28;20299;-73
2023/03/15 04:12:27;;;;;;;6.90;2.50;;;2.50;99.90;;;;;;5042386;28;20208;-74
2023/03/15 04:14:53;;;;;;;6.87;1.37;;;2.50;99.90;;;;;;5047580;28;20243;-74
2023/03/15 04:17:19;;;;;;;4.20;1.87;;;2.50;99.90;;;;;;5040188;28;20207;-73
2023/03/15 04:19:45;;;;;;;8.87;1.83;;;2.50;99.90;;;;;;5061096;28;20180;-73
2023/03/15 04:22:14;;;;;;;5.17;1.90;;;2.50;99.90;;;;;;5060119;28;20217;-74
2023/03/15 04:24:40;;;;;;;7.07;1.43;;;2.50;99.90;;;;;;5075789;28;20206;-73
2023/03/15 04:27:06;;;;;;;10.67;1.93;;;2.50;99.90;;;;;;5045971;28;20199;-74
2023/03/15 04:29:31;;;;;;;15.70;2.77;;;2.50;99.90;;;;;;5061497;28;20571;-74
2023/03/15 04:32:01;;;;;;;8.97;1.73;;;2.50;99.90;;;;;;5050366;28;20196;-73
2023/03/15 04:34:30;;;;;;;8.03;1.90;;;2.40;99.90;;;;;;5049112;28;20670;-72
2023/03/15 04:36:56;;;;;;;6.17;1.80;;;2.50;99.90;;;;;;5064186;28;20225;-74
2023/03/15 04:39:22;;;;;;;11.33;2.10;;;2.50;99.90;;;;;;5061746;28;20208;-74
2023/03/15 04:41:48;;;;;;;6.73;2.43;;;2.40;99.90;;;;;;5062840;28;20227;-74
2023/03/15 04:44:15;;;;;;;12.00;2.27;;;2.50;99.90;;;;;;5059784;28;20203;-72
2023/03/15 04:46:41;;;;;;;13.50;2.17;;;2.40;99.90;;;;;;5042657;28;20178;-74
2023/03/15 04:49:07;;;;;;;11.87;2.40;;;2.40;99.90;;;;;;5048042;28;20208;-70
2023/03/15 04:51:33;;;;;;;7.93;2.63;;;2.40;99.90;;;;;;5065623;28;20748;-74
2023/03/15 04:53:59;;;;;;;5.10;1.60;;;2.40;99.90;;;;;;5048193;28;20223;-74
2023/03/15 04:56:24;;;;;;;9.93;1.93;;;2.40;99.90;;;;;;5048510;28;20219;-73
2023/03/15 04:58:50;;;;;;;8.00;1.73;;;2.40;99.90;;;;;;5066438;28;20187;-73
2023/03/15 05:01:16;;;;;;;12.30;2.10;;;2.40;99.90;;;;;;5046157;28;20199;-73
2023/03/15 05:03:41;;;;;;;8.13;1.60;;;2.30;99.90;;;;;;5061230;28;20215;-74
2023/03/15 05:06:07;;;;;;;9.87;1.77;;;2.30;99.90;;;;;;5051764;28;20203;-72
2023/03/15 05:08:34;;;;;;;7.70;2.23;;;2.30;99.90;;;;;;5064714;28;20261;-73
2023/03/15 05:11:01;;;;;;;10.77;1.90;;;2.20;99.90;;;;;;5064345;28;20203;-73
2023/03/15 05:13:26;;;;;;;7.67;2.67;;;2.30;99.90;;;;;;5064183;28;20187;-74
2023/03/15 05:15:52;;;;;;;4.03;1.90;;;2.30;99.90;;;;;;5061321;28;20202;-74
2023/03/15 05:18:18;;;;;;;9.63;2.43;;;2.30;99.90;;;;;;5064238;28;20211;-74
2023/03/15 05:20:43;;;;;;;10.97;2.10;;;2.30;99.90;;;;;;5043634;28;20645;-74
2023/03/15 05:23:09;;;;;;;15.83;2.20;;;2.30;99.90;;;;;;5045311;28;20219;-72
2023/03/15 05:25:35;;;;;;;6.63;1.93;;;2.30;99.90;;;;;;5057712;28;20544;-73
2023/03/15 05:28:03;;;;;;;9.93;1.70;;;2.40;99.90;;;;;;5068837;28;20198;-74
2023/03/15 05:30:29;;;;;;;10.33;2.50;;;2.40;99.90;;;;;;5048250;28;20235;-74
2023/03/15 05:32:55;;;;;;;8.43;2.00;;;2.50;99.90;;;;;;5047334;28;20632;-74
2023/03/15 05:35:25;;;;;;;7.37;1.80;;;2.60;99.90;;;;;;5044257;28;20231;-73
2023/03/15 05:37:51;;;;;;;6.87;2.17;;;2.70;99.90;;;;;;5064248;28;20182;-73
2023/03/15 05:40:17;;;;;;;9.47;2.00;;;2.80;99.90;;;;;;5049024;28;20287;-73
2023/03/15 05:42:43;;;;;;;7.60;1.90;;;2.90;99.90;;;;;;5065980;28;20211;-74
2023/03/15 05:45:09;;;;;;;8.83;2.67;;;2.90;99.90;;;;;;5062866;28;20238;-72
2023/03/15 05:47:35;;;;;;;6.27;1.87;;;3.00;99.90;;;;;;5056762;28;20573;-74
2023/03/15 05:50:00;;;;;;;9.17;2.40;;;3.00;99.90;;;;;;5052001;28;20211;-74
2023/03/15 05:52:26;;;;;;;5.97;1.70;;;3.00;99.90;;;;;;5061290;28;20609;-74
2023/03/15 05:54:52;;;;;;;7.13;2.20;;;3.10;99.90;;;;;;5047171;28;20292;-74
2023/03/15 05:57:18;;;;;;;7.70;1.80;;;3.10;99.90;;;;;;5051493;28;20214;-74
2023/03/15 05:59:43;;;;;;;10.60;2.50;;;3.10;99.90;;;;;;5049816;28;20202;-72
2023/03/15 06:02:09;;;;;;;7.57;1.73;;;3.10;99.90;;;;;;5050682;28;20204;-73
2023/03/15 06:04:36;;;;;;;13.13;2.27;;;3.20;99.90;;;;;;5051630;28;20661;-74
2023/03/15 06:07:02;;;;;;;12.23;2.80;;;3.20;99.90;;;;;;5062489;28;20207;-74
2023/03/15 06:09:28;;;;;;;9.40;1.80;;;3.30;99.90;;;;;;5046096;28;20214;-74
2023/03/15 06:11:53;;;;;;;11.30;1.90;;;3.40;99.90;;;;;;5068829;28;20260;-71
2023/03/15 06:14:19;;;;;;;8.20;2.00;;;3.70;99.90;;;;;;5065645;28;20217;-73
2023/03/15 06:16:44;;;;;;;12.57;2.40;;;4.20;99.90;;;;;;5064330;28;20263;-74
2023/03/15 06:19:10;;;;;;;7.83;2.37;;;4.70;99.90;;;;;;5061476;28;20534;-73
2023/03/15 06:21:36;;;;;;;5.67;2.20;;;4.80;99.90;;;;;;5069959;28;20654;-74
2023/03/15 06:24:01;;;;;;;8.73;2.27;;;4.60;99.90;;;;;;5052489;28;20205;-74
2023/03/15 06:26:27;;;;;;;6.83;2.57;;;4.30;99.90;;;;;;5047629;28;20288;-73
2023/03/15 06:28:53;;;;;;;10.20;2.70;;;4.00;99.90;;;;;;5065891;28;20183;-74
2023/03/15 06:31:18;;;;;;;8.83;2.47;;;3.70;99.90;;;;;;5045749;28;20272;-71
2023/03/15 06:33:44;;;;;;;9.23;2.37;;;3.60;99.90;;;;;;5064603;28;20206;-74
2023/03/15 06:36:10;;;;;;;6.73;2.13;;;3.40;99.90;;;;;;5063717;28;20207;-72
2023/03/15 06:38:35;;;;;;;7.63;2.10;;;3.30;99.90;;;;;;5045433;28;20208;-72
2023/03/15 06:41:01;;;;;;;7.77;2.23;;;3.20;99.90;;;;;;5042631;28;20266;-75
2023/03/15 06:43:27;;;;;;;8.50;2.60;;;3.20;99.90;;;;;;5051051;28;20188;-75
2023/03/15 06:45:54;;;;;;;8.10;2.57;;;3.20;99.90;;;;;;5065928;28;20698;-73
2023/03/15 06:48:20;;;;;;;10.73;2.20;;;3.20;99.90;;;;;;5061911;28;20729;-72
2023/03/15 06:50:46;;;;;;;8.23;2.33;;;3.20;99.90;;;;;;5052100;28;20221;-74
2023/03/15 06:53:12;;;;;;;7.87;2.27;;;3.20;99.90;;;;;;5049213;28;20219;-73
2023/03/15 06:55:37;;;;;;;9.67;2.57;;;3.20;99.90;;;;;;5069587;28;20182;-73
2023/03/15 06:58:03;;;;;;;8.83;3.20;;;3.30;99.90;;;;;;5052797;28;20230;-74
2023/03/15 07:00:29;;;;;;;9.37;2.43;;;3.30;99.90;;;;;;5064829;28;20737;-75
2023/03/15 07:02:54;;;;;;;14.33;2.37;;;3.40;99.90;;;;;;5053314;28;20214;-72
2023/03/15 07:05:20;;;;;;;6.60;2.50;;;3.60;99.90;;;;;;5070290;28;20222;-74
2023/03/15 07:07:45;;;;;;;10.50;2.23;;;3.80;99.90;;;;;;5070262;28;20190;-74
2023/03/15 07:10:11;;;;;;;11.03;2.50;;;4.00;99.90;;;;;;5064709;28;20308;-73
2023/03/15 07:12:37;;;;;;;13.70;2.53;;;4.00;99.90;;;;;;5062815;28;20217;-73
2023/03/15 07:15:03;;;;;;;8.83;2.13;;;4.20;99.90;;;;;;5066364;28;20221;-74
2023/03/15 07:17:28;;;;;;;8.47;2.20;;;4.10;99.90;;;;;;5065802;28;20244;-75
2023/03/15 07:19:54;;;;;;;12.23;2.30;;;4.20;99.90;;;;;;5063424;28;20212;-71
2023/03/15 07:22:21;;;;;;;8.20;2.70;;;4.10;99.90;;;;;;5061973;28;20887;-73
2023/03/15 07:24:47;;;;;;;13.13;2.53;;;4.10;99.90;;;;;;5062848;28;20601;-74
2023/03/15 07:27:13;;;;;;;8.90;2.30;;;4.10;99.90;;;;;;5065835;28;20218;-74
2023/03/15 07:29:39;;;;;;;9.23;2.43;;;4.10;99.90;;;;;;5065215;28;20705;-74
2023/03/15 07:32:05;;;;;;;6.47;2.70;;;4.10;99.90;;;;;;5062619;28;20280;-73
2023/03/15 07:34:30;;;;;;;12.03;3.03;;;4.10;99.90;;;;;;5045372;28;20269;-73
2023/03/15 07:36:56;;;;;;;8.80;2.20;;;4.10;99.90;;;;;;5064383;28;20308;-73
2023/03/15 07:39:22;;;;;;;6.00;2.67;;;4.10;99.90;;;;;;5066343;28;20220;-74
2023/03/15 07:41:48;;;;;;;5.83;2.10;;;4.10;99.90;;;;;;5065437;28;20266;-74
2023/03/15 07:44:13;;;;;;;8.27;1.87;;;4.10;99.90;;;;;;5040949;28;20693;-73
2023/03/15 07:46:39;;;;;;;11.70;3.17;;;4.10;99.90;;;;;;5062632;28;20258;-74
2023/03/15 07:49:05;;;;;;;11.13;3.17;;;4.10;99.90;;;;;;5051078;28;20719;-74
2023/03/15 07:51:31;;;;;;;13.67;2.77;;;4.20;99.90;;;;;;5063772;28;20216;-74
2023/03/15 07:53:57;;;;;;;11.20;2.47;;;4.20;99.90;;;;;;5086824;22;20209;-80
2023/03/15 07:56:22;;;;;;;14.63;3.17;;;4.20;99.90;;;;;;5051312;28;20743;-82
2023/03/15 07:58:48;;;;;;;11.97;3.00;;;4.20;99.90;;;;;;5072047;28;20167;-82
2023/03/15 08:01:14;;;;;;;11.47;2.67;;;4.30;99.90;;;;;;5051398;28;20679;-82
2023/03/15 08:03:40;;;;;;;9.73;3.30;;;4.50;99.90;;;;;;5074108;28;20203;-83
2023/03/15 08:06:06;;;;;;;12.03;2.90;;;4.80;99.90;;;;;;5048038;28;20222;-83
2023/03/15 08:08:32;;;;;;;7.33;2.87;;;4.70;99.90;;;;;;5052886;28;20211;-82
2023/03/15 08:10:58;;;;;;;6.10;3.10;;;4.70;99.90;;;;;;5053799;28;20210;-82
2023/03/15 08:13:24;;;;;;;11.87;2.60;;;4.50;99.90;;;;;;5052064;28;20174;-82
2023/03/15 08:15:49;;;;;;;10.17;3.20;;;4.50;99.90;;;;;;5055709;28;20281;-82
2023/03/15 08:18:15;;;;;;;7.97;2.93;;;4.60;99.90;;;;;;5056876;28;20206;-82
2023/03/15 08:20:41;;;;;;;9.47;3.33;;;4.60;99.90;;;;;;5057129;28;20206;-82
2023/03/15 08:23:08;;;;;;;11.03;3.73;;;4.60;99.90;;;;;;5054899;28;20207;-82
2023/03/15 08:25:35;;;;;;;8.40;2.87;;;4.60;99.90;;;;;;5070376;28;20206;-82
2023/03/15 08:28:01;;;;;;;11.80;3.20;;;4.60;99.90;;;;;;5058132;28;20228;-82
2023/03/15 08:30:27;;;;;;;12.40;3.27;;;4.70;99.90;;;;;;5061543;28;20268;-82
2023/03/15 08:32:52;;;;;;;7.70;2.53;;;4.70;99.90;;;;;;5091337;28;20206;-82
2023/03/15 08:35:20;;;;;;;12.87;3.13;;;4.80;99.90;;;;;;5086172;28;20219;-82
2023/03/15 08:37:46;;;;;;;11.30;3.33;;;4.70;99.90;;;;;;5063480;28;20259;-81
2023/03/15 08:40:17;;;;;;;6.57;2.67;;;4.90;99.90;;;;;;5058676;28;20273;-81
2023/03/15 08:42:43;;;;;;;10.63;3.07;;;4.90;99.90;;;;;;5061203;28;20203;-81
2023/03/15 08:45:10;;;;;;;10.27;2.80;;;5.00;99.90;;;;;;5054001;28;20206;-80
2023/03/15 08:47:36;;;;;;;7.60;2.50;;;5.10;99.90;;;;;;5071767;28;20589;-81
2023/03/15 08:50:07;;;;;;;11.20;3.03;;;5.10;99.90;;;;;;5068039;28;20219;-81
2023/03/15 08:52:33;;;;;;;10.70;2.93;;;5.10;99.90;;;;;;5058337;28;20207;-81
2023/03/15 08:54:59;;;;;;;8.77;3.00;;;5.10;99.90;;;;;;5070701;28;20219;-81
2023/03/15 08:57:25;;;;;;;6.47;2.60;;;5.10;99.90;;;;;;5077114;28;20252;-81
2023/03/15 08:59:51;;;;;;;9.20;2.90;;;4.90;99.90;;;;;;5086284;28;20209;-81
2023/03/15 09:02:17;;;;;;;8.77;2.57;;;4.90;99.90;;;;;;5083992;28;20481;-81
2023/03/15 09:04:43;;;;;;;11.00;2.70;;;5.00;99.90;;;;;;5084012;28;20198;-82
2023/03/15 09:07:11;;;;;;;8.37;3.00;;;5.20;99.90;;;;;;5070308;28;20191;-81
2023/03/15 09:09:37;;;;;;;12.53;2.97;;;5.10;99.90;;;;;;5083341;28;20207;-82
2023/03/15 09:12:03;;;;;;;13.77;3.80;;;5.00;99.90;;;;;;5085204;28;20275;-81
2023/03/15 09:14:29;;;;;;;11.93;3.50;;;5.10;99.90;;;;;;5069612;28;20234;-81
2023/03/15 09:16:55;;;;;;;10.17;3.37;;;5.20;99.90;;;;;;5075545;28;20175;-81
2023/03/15 09:19:21;;;;;;;11.93;2.80;;;5.30;99.90;;;;;;5074915;28;20217;-82
2023/03/15 09:21:48;;;;;;;6.97;2.73;;;5.30;99.90;;;;;;5070080;28;20210;-84
2023/03/15 09:24:13;;;;;;;4.57;2.20;;;5.10;99.90;;;;;;5076974;28;20211;-81
2023/03/15 09:26:39;;;;;;;7.43;2.53;;;5.10;99.90;;;;;;5094566;28;20237;-82
2023/03/15 09:29:06;;;;;;;10.07;2.87;;;5.10;99.90;;;;;;5089488;28;20243;-82
2023/03/15 09:31:32;;;;;;;7.77;3.00;;;5.00;99.90;;;;;;5089637;28;20216;-83
2023/03/15 09:33:58;;;;;;;7.17;3.10;;;5.00;99.90;;;;;;5082018;28;20203;-82
2023/03/15 09:36:24;;;;;;;10.10;3.23;;;5.00;99.90;;;;;;5075178;28;20688;-82
2023/03/15 09:38:49;;;;;;;11.37;2.93;;;5.20;99.90;;;;;;5073544;28;20203;-82
2023/03/15 09:41:46;;;;;;;5.90;2.77;;;5.20;99.90;;;;;;5068572;28;20604;-82
2023/03/15 09:44:17;;;;;;;8.60;2.80;;;5.40;99.90;;;;;;5068266;28;20211;-82
2023/03/15 09:46:51;;;;;;;6.60;2.30;;;5.50;99.90;;;;;;5068463;28;20175;-82
2023/03/15 09:49:29;;;;;;;6.47;2.90;;;5.50;99.90;;;;;;5055775;28;20264;-82
2023/03/15 09:52:00;;;;;;;9.20;2.33;;;5.80;99.90;;;;;;5047814;28;20290;-82
2023/03/15 09:54:36;;;;;;;7.90;2.40;;;5.90;99.90;;;;;;5055356;28;20308;-82
2023/03/15 09:57:15;;;;;;;10.40;3.00;;;6.00;99.90;;;;;;5057044;28;20758;-82
2023/03/15 09:59:46;;;;;;;8.77;3.20;;;5.90;99.90;;;;;;5070195;28;20207;-82
2023/03/15 10:02:23;;;;;;;8.87;3.23;;;6.00;99.90;;;;;;5068640;28;20211;-82
2023/03/15 10:04:54;;;;;;;9.40;2.73;;;6.00;99.90;;;;;;5066745;28;20693;-82
2023/03/15 10:07:20;;;;;;;4.93;2.17;;;6.00;99.90;;;;;;5065562;28;20615;-82
2023/03/15 10:09:46;;;;;;;11.53;4.43;;;6.10;99.90;;;;;;5058249;28;20211;-82
2023/03/15 10:12:14;;;;;;;7.90;2.53;;;6.30;99.90;;;;;;5054679;28;20219;-82
2023/03/15 10:15:00;;;;;;;11.37;2.80;;;6.70;99.90;;;;;;5070503;28;20221;-82
2023/03/15 10:17:38;;;;;;;7.87;2.93;;;6.50;99.90;;;;;;5067200;28;20226;-82
2023/03/15 10:20:17;;;;;;;7.03;3.00;;;6.60;99.90;;;;;;5058513;28;20297;-84
2023/03/15 10:23:10;;;;;;;8.17;2.40;;;7.00;99.90;;;;;;5082982;28;20193;-83
2023/03/15 10:25:37;;;;;;;6.57;2.37;;;7.60;99.90;;;;;;5067697;28;20222;-83
2023/03/15 10:28:08;;;;;;;7.40;2.37;;;7.80;99.90;;;;;;5085235;28;20203;-82
2023/03/15 10:30:36;;;;;;;4.80;2.40;;;7.80;99.90;;;;;;5075416;28;20217;-83
2023/03/15 10:33:20;;;;;;;7.30;2.50;;;7.90;99.90;;;;;;5064708;28;20215;-82
2023/03/15 10:35:46;;;;;;;7.67;2.20;;;8.20;99.90;;;;;;5055759;28;20847;-82
2023/03/15 10:38:20;;;;;;;5.30;2.40;;;8.40;99.90;;;;;;5070921;28;20207;-82
2023/03/15 10:40:51;;;;;;;9.67;2.73;;;8.50;99.90;;;;;;5074256;28;20186;-81
2023/03/15 10:43:18;;;;;;;4.50;2.03;;;8.70;99.90;;;;;;5074233;28;20614;-81
2023/03/15 10:46:02;;;;;;;5.67;2.13;;;8.60;99.90;;;;;;5057405;28;20827;-82
2023/03/15 10:48:30;;;;;;;4.20;2.03;;;8.00;99.90;;;;;;5050581;28;20218;-81
2023/03/15 10:50:56;;;;;;;5.77;1.80;;;7.80;99.90;;;;;;5065810;28;20229;-81
2023/03/15 10:53:24;;;;;;;3.50;1.70;;;7.60;99.90;;;;;;5063813;28;20210;-81
2023/03/15 10:56:03;;;;;;;6.53;2.77;;;7.60;99.90;;;;;;5088373;28;20277;-82
2023/03/15 10:58:40;;;;;;;5.37;2.10;;;7.70;99.90;;;;;;5090046;28;20178;-80
2023/03/15 11:01:12;;;;;;;8.53;2.37;;;8.00;99.90;;;;;;5061942;28;20703;-81
2023/03/15 11:03:40;;;;;;;5.67;2.13;;;8.50;99.90;;;;;;5048967;28;20630;-82
2023/03/15 11:06:19;;;;;;;6.40;2.07;;;8.70;99.90;;;;;;5055792;28;20206;-82
2023/03/15 11:08:45;;;;;;;9.77;2.80;;;8.70;99.90;;;;;;5074725;28;20270;-82
2023/03/15 11:11:11;;;;;;;4.53;1.60;;;8.50;99.90;;;;;;5081316;28;20220;-80
2023/03/15 11:13:39;;;;;;;5.73;2.43;;;8.40;99.90;;;;;;5085060;28;20182;-82
2023/03/15 11:16:08;;;;;;;7.20;2.03;;;8.40;99.90;;;;;;5092113;28;20202;-82
2023/03/15 11:18:45;;;;;;;5.47;2.00;;;8.70;99.90;;;;;;5071653;28;20207;-82
2023/03/15 11:21:14;;;;;;;7.93;2.23;;;8.80;99.90;;;;;;5067891;28;20313;-80
2023/03/15 11:23:48;;;;;;;6.80;1.43;;;8.50;99.90;;;;;;5067146;28;20218;-82
2023/03/15 11:26:21;;;;;;;8.33;1.70;;;7.90;99.90;;;;;;5058090;28;20218;-81
2023/03/15 11:28:51;;;;;;;2.97;1.93;;;8.10;99.90;;;;;;5055071;28;20261;-82
2023/03/15 11:31:20;;;;;;;6.87;2.03;;;8.10;99.90;;;;;;5057520;28;20295;-82
2023/03/15 11:34:11;;;;;;;19.67;6.23;;;8.20;99.90;;;;;;5069013;28;20207;-82
2023/03/15 11:36:41;;;;;;;4.03;1.47;;;8.50;99.90;;;;;;5067633;28;20230;-81
2023/03/15 11:39:13;;;;;;;3.20;1.47;;;8.60;99.90;;;;;;5084474;28;20225;-81
2023/03/15 11:41:55;;;;;;;7.53;1.93;;;8.70;99.90;;;;;;5082882;28;20625;-80
2023/03/15 11:44:32;;;;;;;4.73;1.73;;;8.90;99.90;;;;;;5079651;28;20287;-80
2023/03/15 11:47:09;;;;;;;6.47;1.70;;;8.50;99.90;;;;;;5062274;28;20228;-80
2023/03/15 11:49:51;;;;;;;6.60;1.37;;;8.70;99.90;;;;;;5057182;28;20264;-81
2023/03/15 11:52:20;;;;;;;6.27;2.00;;;9.00;99.90;;;;;;5075001;28;20216;-81
2023/03/15 11:54:46;;;;;;;7.97;1.47;;;9.10;99.90;;;;;;5060504;28;20320;-80
2023/03/15 11:57:27;;;;;;;4.93;2.03;;;9.00;99.90;;;;;;5066996;28;20211;-81
2023/03/15 11:59:53;;;;;;;6.97;2.03;;;8.80;99.90;;;;;;5087736;28;20199;-82
2023/03/15 12:02:19;;;;;;;6.17;1.90;;;8.90;99.90;;;;;;5084312;28;20210;-81
2023/03/15 12:04:53;;;;;;;4.10;1.97;;;8.70;99.90;;;;;;5083862;28;20230;-81
2023/03/15 12:07:18;;;;;;;5.93;1.87;;;8.60;99.90;;;;;;5078270;28;20203;-82
2023/03/15 12:09:54;;;;;;;6.13;2.33;;;8.70;99.90;;;;;;5064719;28;20223;-80
2023/03/15 12:12:25;;;;;;;4.80;1.53;;;8.30;99.90;;;;;;5064665;28;20229;-82
2023/03/15 12:15:05;;;;;;;11.47;2.10;;;8.50;99.90;;;;;;5082614;28;20240;-82
2023/03/15 12:17:33;;;;;;;4.73;2.00;;;8.20;99.90;;;;;;5068744;28;20256;-82
2023/03/15 12:20:08;;;;;;;8.20;2.53;;;8.10;99.90;;;;;;5069981;28;20194;-81
2023/03/15 12:22:36;;;;;;;3.07;1.50;;;8.30;99.90;;;;;;5083978;28;20178;-81
2023/03/15 12:25:15;;;;;;;14.27;2.50;;;8.70;99.90;;;;;;5057003;28;20210;-81
2023/03/15 12:27:49;;;;;;;5.03;1.80;;;9.00;99.90;;;;;;5071880;28;20210;-83
2023/03/15 12:30:39;;;;;;;7.03;2.33;;;9.10;99.90;;;;;;5064366;28;20208;-81
2023/03/15 12:33:16;;;;;;;7.17;1.90;;;9.30;99.90;;;;;;5049362;28;20218;-81
2023/03/15 12:35:43;;;;;;;7.73;2.77;;;9.40;99.90;;;;;;5068130;28;20215;-82
2023/03/15 12:38:15;;;;;;;5.17;1.97;;;9.30;99.90;;;;;;5051901;28;20215;-81
2023/03/15 12:40:57;;;;;;;9.03;3.13;;;8.90;99.90;;;;;;5049431;28;20207;-82
2023/03/15 12:43:51;;;;;;;7.87;2.67;;;8.60;99.90;;;;;;5054750;28;20567;-81
2023/03/15 12:46:35;;;;;;;5.50;1.57;;;8.20;99.90;;;;;;5050955;28;20231;-81
2023/03/15 12:49:37;;;;;;;8.13;2.00;;;8.10;99.90;;;;;;5063653;28;20615;-81
2023/03/15 12:52:15;;;;;;;6.67;1.40;;;8.10;99.90;;;;;;5048068;28;20206;-81
2023/03/15 12:55:04;;;;;;;7.70;2.50;;;8.20;99.90;;;;;;5057738;28;20215;-82
2023/03/15 12:57:37;;;;;;;7.87;2.33;;;8.00;99.90;;;;;;5069634;28;20709;-81
2023/03/15 13:00:14;;;;;;;7.07;1.77;;;7.90;99.90;;;;;;5064114;28;20205;-82
2023/03/15 13:03:09;;;;;;;9.70;1.77;;;7.80;99.90;;;;;;5050774;28;20210;-82